Ravenna, MI (49451)

2:58 AM EST on November 29, 2014 (GMT -0500)
Cloverville | Change Station
CLOSE
Current Station
Personal Weather Station
Location: Fruitport, MI
Elevation: 676 ft
Nearby Weather Stations
Active Advisory: Winter Weather Advisory

Elev 676 ft 43.19 °N, 86.13 °W | Updated 10 seconds ago

Ice Pellets
Ice Pellets
29.8 °F
Feels Like 26 °F
N
4.0
Wind Variable Wind from SE
Gusts 6.0 mph

Today
High -- | Low -- °F
--% Chance of Precip.
Yesterday
High -- | Low -- °F
Precip. -- in
7:53 AM 5:10 PM
Waxing Crescent, 49% visible
Pressure 29.92 in
Visibility 10.0 miles
Clouds Mostly Cloudy 10000 ft
Windchill 26 °F
Dew Point 26 °F
Humidity 87%
Rainfall 0.00 in
Snow Depth Not available.
UV 0 out of 12
Pollen .10 out of 12
Air Quality Not available.
Flu Activity Not available.
METAR KMKG 290755Z AUTO 15010KT 10SM BKN100 M01/M05 A2990 RMK AO2 SLP132 T10111050

More Conditions Fewer Conditions

Pressure 29.92 in
Visibility 10.0 miles
Clouds Mostly Cloudy 10000 ft
Windchill 26 °F
Dew Point 26 °F
Humidity 87%
Rainfall 0.00 in
Snow Depth Not available.
UV 0 out of 12
Pollen .10 out of 12
Air Quality Not available.
Flu Activity Not available.
METAR KMKG 290755Z AUTO 15010KT 10SM BKN100 M01/M05 A2990 RMK AO2 SLP132 T10111050

More Conditions Fewer Conditions

10-Day Weather Forecast

Almanac

Astronomy

Nov. 29, 2014 Rise Set
Actual Time
Civil Twilight
Nautical Twilight
Astronomical Twilight
Moon
Length of Visible Light
Length of Day
Tomorrow will be .
, % of the Moon is Illuminated

Today's Extremes

State Highs State Lows

Community

WunderPhotos

Upload Photos

1,774,432 photos uploaded!

WunderBlogs® & News

Nearby

Air Quality

  Air Quality AQ Index Pollutant
Not available.

Snow Depth

Station Depth Elevation

Earthquake Activity

City Distance Mag. Time & Date
Minimum magnitude displayed is 2.5.

Coastal Water Temperatures

Place Temperature

Nearby Weather Stations